Airport ID:KH71
Update Time (UTC):23/04/2019 16:08
Wind Speed (Knots):8
Wind Direction (Magnetic):210
Temperature (°C):21
Dew Point (°C):16
Humidity (%):75
Altimeter (inHg):30.02
Density Altitude (Feet):
Visibility (Miles):10+
Clouds (Hundreds of feet):BKN021 OVC025
Present Weather:
METAR:METAR KH71 231605Z AUTO 21007G13KT 10SM BKN021 BKN025 OVC050 21/16 A3002 RMK AO2 LTG DSNT N

The data displayed is for advisory purposes only and is not to be used for flight planning or operations.

This page is not automatically refreshed. Reload the page to see current data.